createdAt,value
2023-02-27T00:03:01.725Z,4.02
2023-02-27T00:08:04.728Z,3.66
2023-02-27T00:13:07.835Z,7.25
2023-02-27T00:18:10.729Z,5.27
2023-02-27T00:23:15.883Z,5.26
2023-02-27T00:28:18.787Z,6.83
2023-02-27T00:33:21.689Z,4.99
2023-02-27T00:38:24.589Z,6.99
2023-02-27T00:43:27.510Z,4.65
2023-02-27T00:48:30.502Z,4.90
2023-02-27T00:53:33.414Z,6.78
2023-02-27T00:58:36.198Z,4.18
2023-02-27T01:03:39.208Z,5.65
2023-02-27T01:08:42.083Z,6.90
2023-02-27T01:13:46.351Z,4.12
2023-02-27T01:18:49.357Z,5.66
2023-02-27T01:23:52.264Z,7.08
2023-02-27T01:28:55.166Z,4.42
2023-02-27T01:33:57.965Z,4.90
2023-02-27T01:39:00.884Z,7.51
2023-02-27T01:44:12.040Z,4.92
2023-02-27T01:49:29.613Z,3.05
2023-02-27T01:54:36.854Z,3.38
2023-02-27T01:59:41.971Z,7.24
2023-02-27T02:04:46.514Z,5.35
2023-02-27T02:09:53.124Z,3.33
2023-02-27T02:14:56.006Z,4.25
2023-02-27T02:20:07.727Z,7.03
2023-02-27T02:25:30.998Z,4.48
2023-02-27T02:30:43.031Z,2.91
2023-02-27T02:36:04.864Z,2.05
2023-02-27T02:41:32.861Z,5.01
2023-02-27T02:46:47.394Z,6.53
2023-02-27T02:52:05.182Z,3.95
2023-02-27T02:57:13.922Z,2.65
2023-02-27T03:02:25.763Z,1.92
2023-02-27T03:07:35.653Z,1.34
2023-02-27T03:12:42.608Z,3.05
2023-02-27T03:18:09.950Z,6.91
2023-02-27T03:23:20.969Z,4.68
2023-02-27T03:28:31.755Z,2.98
2023-02-27T03:34:02.611Z,2.08
2023-02-27T03:39:22.412Z,1.40
2023-02-27T03:44:30.952Z,2.87
2023-02-27T03:49:33.849Z,6.88
2023-02-27T03:54:42.122Z,5.13
2023-02-27T03:59:45.737Z,3.33
2023-02-27T04:04:48.703Z,2.34
2023-02-27T04:10:10.453Z,3.91
2023-02-27T04:15:31.486Z,6.52
2023-02-27T04:20:34.283Z,4.07
2023-02-27T04:25:54.695Z,2.72
2023-02-27T04:31:09.849Z,1.68
2023-02-27T04:36:38.858Z,2.93
2023-02-27T04:41:54.683Z,6.81
2023-02-27T04:47:00.385Z,4.57
2023-02-27T04:52:10.658Z,2.39
2023-02-27T04:57:20.216Z,1.17
2023-02-27T05:02:33.395Z,0.40
2023-02-27T05:07:49.676Z,1.96
2023-02-27T05:12:58.894Z,5.95
2023-02-27T05:18:05.303Z,3.93
2023-02-27T05:23:08.220Z,2.22
2023-02-27T05:28:19.004Z,1.21
2023-02-27T05:33:33.391Z,0.41
2023-02-27T05:38:45.269Z,3.34
2023-02-27T05:43:53.924Z,5.22
2023-02-27T05:49:21.293Z,2.63
2023-02-27T05:54:46.781Z,1.15
2023-02-27T06:00:03.770Z,0.26
2023-02-27T06:05:07.608Z,3.30
2023-02-27T06:10:19.582Z,5.36
2023-02-27T06:15:23.141Z,2.85
2023-02-27T06:20:25.950Z,1.66
2023-02-27T06:25:28.810Z,0.97
2023-02-27T06:30:32.208Z,0.46
2023-02-27T06:35:35.153Z,2.08
2023-02-27T06:40:38.598Z,5.91
2023-02-27T06:45:41.778Z,3.99
2023-02-27T06:50:44.915Z,2.65
2023-02-27T06:55:48.658Z,1.91
2023-02-27T07:00:53.390Z,1.40
2023-02-27T07:05:59.433Z,0.99
2023-02-27T07:11:03.310Z,0.81
2023-02-27T07:16:06.528Z,4.71
2023-02-27T07:21:10.208Z,5.95
2023-02-27T07:26:14.021Z,3.86
2023-02-27T07:31:18.201Z,2.88
2023-02-27T07:36:22.410Z,2.37
2023-02-27T07:41:30.650Z,2.13
2023-02-27T07:46:34.879Z,3.97
2023-02-27T07:51:38.101Z,7.34
2023-02-27T07:56:42.343Z,5.51
2023-02-27T08:01:46.910Z,4.01
2023-02-27T08:06:50.341Z,3.33
2023-02-27T08:11:54.327Z,2.93
2023-02-27T08:17:00.968Z,5.71
2023-02-27T08:22:04.325Z,6.64
2023-02-27T08:27:07.992Z,4.95
2023-02-27T08:32:11.416Z,3.88
2023-02-27T08:37:14.372Z,3.12
2023-02-27T08:42:19.376Z,2.58
2023-02-27T08:47:23.392Z,2.30
2023-02-27T08:52:26.395Z,5.27
2023-02-27T08:57:29.288Z,6.07
2023-02-27T09:02:32.467Z,4.27
2023-02-27T09:07:35.535Z,3.24
2023-02-27T09:12:39.268Z,2.55
2023-02-27T09:17:42.331Z,2.13
2023-02-27T09:22:50.405Z,2.00
2023-02-27T09:27:57.056Z,2.04
2023-02-27T09:33:00.213Z,4.67
2023-02-27T09:38:03.283Z,5.59
2023-02-27T09:43:16.305Z,4.18
2023-02-27T09:48:41.376Z,3.45
2023-02-27T09:53:48.585Z,3.15
2023-02-27T09:59:10.270Z,3.04
2023-02-27T10:04:35.115Z,3.05
2023-02-27T10:09:57.792Z,3.13
2023-02-27T10:15:17.910Z,3.20
2023-02-27T10:20:29.219Z,3.05
2023-02-27T10:25:39.594Z,2.87
2023-02-27T10:30:47.183Z,2.79
2023-02-27T10:36:02.165Z,2.57
2023-02-27T10:41:10.923Z,2.30
2023-02-27T10:46:18.055Z,2.25
2023-02-27T10:51:23.066Z,2.42
2023-02-27T10:56:27.898Z,2.57
2023-02-27T11:01:46.632Z,2.56
2023-02-27T11:06:53.084Z,2.45
2023-02-27T11:12:11.534Z,2.64
2023-02-27T11:17:22.901Z,2.89
2023-02-27T11:22:29.340Z,3.10
2023-02-27T11:27:33.154Z,3.14
2023-02-27T11:32:54.128Z,3.09
2023-02-27T11:38:16.637Z,3.14
2023-02-27T11:43:21.717Z,3.22
2023-02-27T11:48:48.711Z,3.33
2023-02-27T11:54:01.059Z,3.46
2023-02-27T11:59:10.390Z,3.53
2023-02-27T12:04:27.023Z,3.71
2023-02-27T12:09:30.372Z,3.81
2023-02-27T12:14:40.766Z,3.64
2023-02-27T12:20:00.786Z,3.49
2023-02-27T12:25:14.470Z,3.34
2023-02-27T12:30:24.846Z,3.36
2023-02-27T12:35:33.210Z,3.25
2023-02-27T12:41:05.087Z,2.95
2023-02-27T12:46:34.596Z,2.88
2023-02-27T12:52:01.094Z,3.22
2023-02-27T12:57:07.013Z,3.52
2023-02-27T13:02:24.967Z,3.51
2023-02-27T13:07:39.225Z,3.21
2023-02-27T13:12:49.956Z,2.98
2023-02-27T13:18:01.564Z,3.00
2023-02-27T13:23:32.326Z,2.99
2023-02-27T13:28:35.492Z,3.06
2023-02-27T13:33:38.693Z,3.18
2023-02-27T13:38:47.615Z,3.30
2023-02-27T13:43:55.485Z,3.47
2023-02-27T13:49:04.587Z,3.47
2023-02-27T13:54:13.342Z,3.48
2023-02-27T13:59:29.078Z,3.50
2023-02-27T14:04:37.516Z,3.48
2023-02-27T14:09:44.138Z,3.44
2023-02-27T14:14:50.372Z,3.40
2023-02-27T14:19:57.231Z,3.41
2023-02-27T14:25:22.324Z,3.40
2023-02-27T14:30:34.568Z,3.45
2023-02-27T14:35:38.591Z,3.43
2023-02-27T14:41:08.444Z,3.33
2023-02-27T14:46:26.534Z,3.28
2023-02-27T14:51:34.668Z,3.39
2023-02-27T14:56:37.671Z,3.57
2023-02-27T15:01:40.760Z,3.71
2023-02-27T15:06:46.263Z,3.59
2023-02-27T15:12:02.674Z,3.43
2023-02-27T15:17:28.633Z,3.32
2023-02-27T15:22:39.710Z,3.97
2023-02-27T15:27:43.017Z,4.74
2023-02-27T15:32:45.871Z,5.23
2023-02-27T15:37:55.067Z,5.22
2023-02-27T15:43:00.343Z,5.12
2023-02-27T15:48:04.605Z,4.83
2023-02-27T15:53:07.356Z,4.64
2023-02-27T15:58:21.444Z,4.31
2023-02-27T16:03:24.540Z,3.66
2023-02-27T16:08:30.460Z,3.02
2023-02-27T16:13:40.208Z,2.44
2023-02-27T16:18:55.075Z,1.90
2023-02-27T16:24:19.914Z,1.45
2023-02-27T16:29:28.989Z,1.03
2023-02-27T16:34:46.301Z,0.73
2023-02-27T16:39:54.577Z,0.43
2023-02-27T16:44:57.597Z,0.15
2023-02-27T16:50:00.676Z,-0.10
2023-02-27T16:55:03.571Z,-0.33
2023-02-27T17:00:10.064Z,0.61
2023-02-27T17:05:15.259Z,5.39
2023-02-27T17:10:25.547Z,4.37
2023-02-27T17:15:29.251Z,2.35
2023-02-27T17:20:32.162Z,1.30
2023-02-27T17:25:35.058Z,0.57
2023-02-27T17:30:39.142Z,-0.01
2023-02-27T17:35:42.336Z,-0.48
2023-02-27T17:40:45.201Z,-0.85
2023-02-27T17:45:48.147Z,-1.18
2023-02-27T17:50:51.009Z,-1.44
2023-02-27T17:55:53.912Z,0.34
2023-02-27T18:01:11.745Z,5.02
2023-02-27T18:06:15.072Z,3.52
2023-02-27T18:11:20.132Z,1.53
2023-02-27T18:16:24.089Z,0.43
2023-02-27T18:21:27.104Z,-0.34
2023-02-27T18:26:32.088Z,-0.91
2023-02-27T18:31:43.360Z,-0.35
2023-02-27T18:36:46.319Z,4.57
2023-02-27T18:41:49.224Z,3.90
2023-02-27T18:46:52.359Z,1.62
2023-02-27T18:51:55.335Z,0.33
2023-02-27T18:56:58.243Z,-0.07
2023-02-27T19:02:01.462Z,4.11
2023-02-27T19:07:04.354Z,3.45
2023-02-27T19:12:07.726Z,1.16
2023-02-27T19:17:10.575Z,-0.14
2023-02-27T19:22:13.476Z,-0.91
2023-02-27T19:27:17.304Z,2.60
2023-02-27T19:32:20.280Z,4.06
2023-02-27T19:37:23.218Z,1.41
2023-02-27T19:42:26.426Z,-0.14
2023-02-27T19:47:29.323Z,0.11
2023-02-27T19:52:32.225Z,4.32
2023-02-27T19:57:36.990Z,2.69
2023-02-27T20:02:40.991Z,0.61
2023-02-27T20:07:43.906Z,-0.63
2023-02-27T20:12:46.815Z,0.01
2023-02-27T20:17:49.920Z,4.24
2023-02-27T20:22:52.723Z,2.52
2023-02-27T20:27:55.623Z,0.43
2023-02-27T20:32:58.526Z,-0.78
2023-02-27T20:38:01.641Z,0.54
2023-02-27T20:43:04.534Z,4.01
2023-02-27T20:48:07.443Z,1.56
2023-02-27T20:53:10.344Z,-0.28
2023-02-27T20:58:13.250Z,-1.32
2023-02-27T21:03:16.156Z,0.97
2023-02-27T21:08:19.060Z,3.70
2023-02-27T21:13:23.091Z,1.10
2023-02-27T21:18:25.991Z,-0.52
2023-02-27T21:23:28.904Z,-1.57
2023-02-27T21:28:31.797Z,0.40
2023-02-27T21:33:35.655Z,3.86
2023-02-27T21:38:39.578Z,1.40
2023-02-27T21:43:42.565Z,-0.54
2023-02-27T21:48:45.455Z,-1.53
2023-02-27T21:53:49.996Z,1.87
2023-02-27T21:58:53.677Z,3.39
2023-02-27T22:03:57.348Z,0.61
2023-02-27T22:09:02.947Z,-1.09
2023-02-27T22:14:06.656Z,0.08
2023-02-27T22:19:12.750Z,3.35
2023-02-27T22:24:16.036Z,0.78
2023-02-27T22:29:18.922Z,-1.07
2023-02-27T22:34:21.842Z,-2.03
2023-02-27T22:39:24.737Z,1.69
2023-02-27T22:44:27.532Z,2.40
2023-02-27T22:49:30.434Z,-0.33
2023-02-27T22:54:33.273Z,-1.87
2023-02-27T22:59:36.622Z,-0.69
2023-02-27T23:04:39.451Z,2.96
2023-02-27T23:09:42.457Z,0.57
2023-02-27T23:14:45.315Z,-1.34
2023-02-27T23:19:48.272Z,-2.48
2023-02-27T23:24:51.011Z,-1.10
2023-02-27T23:29:53.864Z,2.78
2023-02-27T23:34:56.973Z,0.39
2023-02-27T23:39:59.773Z,-1.64
2023-02-27T23:45:02.585Z,-0.70
2023-02-27T23:50:06.538Z,2.86
2023-02-27T23:55:09.950Z,0.37
